createdAt,value
2018-06-09T00:01:19.028Z,95161.00
2018-06-09T00:03:50.089Z,95159.00
2018-06-09T00:06:21.032Z,95160.00
2018-06-09T00:08:52.192Z,95157.00
2018-06-09T00:11:46.132Z,95149.00
2018-06-09T00:14:17.185Z,95149.00
2018-06-09T00:16:48.209Z,95147.00
2018-06-09T00:19:35.748Z,95149.00
2018-06-09T00:22:07.405Z,95158.00
2018-06-09T00:24:38.619Z,95162.00
2018-06-09T00:27:09.708Z,95168.00
2018-06-09T00:29:40.853Z,95170.00
2018-06-09T00:32:12.032Z,95173.00
2018-06-09T00:34:43.237Z,95172.00
2018-06-09T00:37:15.109Z,95174.00
2018-06-09T00:39:47.201Z,95177.00
2018-06-09T00:42:18.667Z,95178.00
2018-06-09T00:45:52.969Z,95184.00
2018-06-09T00:48:24.085Z,95179.00
2018-06-09T00:50:55.655Z,95178.00
2018-06-09T00:53:27.185Z,95176.00
2018-06-09T00:56:10.396Z,95178.00
2018-06-09T00:58:41.465Z,95175.00
2018-06-09T01:01:12.672Z,95174.00
2018-06-09T01:03:44.319Z,95177.00
2018-06-09T01:06:15.576Z,95173.00
2018-06-09T01:08:46.684Z,95171.00
2018-06-09T01:11:17.887Z,95173.00
2018-06-09T01:13:49.327Z,95169.00
2018-06-09T01:16:20.547Z,95160.00
2018-06-09T01:19:06.028Z,95158.00
2018-06-09T01:21:37.140Z,95158.00
2018-06-09T01:24:08.542Z,95156.00
2018-06-09T01:26:44.630Z,95154.00
2018-06-09T01:29:15.849Z,95151.00
2018-06-09T01:31:46.927Z,95145.00
2018-06-09T01:34:18.244Z,95144.00
2018-06-09T01:36:49.384Z,95143.00
2018-06-09T01:39:20.875Z,95145.00
2018-06-09T01:41:51.956Z,95144.00
2018-06-09T01:44:23.126Z,95136.00
2018-06-09T01:46:54.285Z,95124.00
2018-06-09T01:49:25.395Z,95124.00
2018-06-09T01:51:56.444Z,95122.00
2018-06-09T01:54:27.547Z,95121.00
2018-06-09T01:56:58.646Z,95114.00
2018-06-09T01:59:29.848Z,95116.00
2018-06-09T02:02:00.955Z,95111.00
2018-06-09T02:04:32.098Z,95107.00
2018-06-09T02:07:22.149Z,95109.00
2018-06-09T02:09:53.512Z,95111.00
2018-06-09T02:12:24.685Z,95108.00
2018-06-09T02:14:55.971Z,95108.00
2018-06-09T02:17:27.012Z,95105.00
2018-06-09T02:19:58.131Z,95109.00
2018-06-09T02:22:29.324Z,95108.00
2018-06-09T02:25:00.712Z,95116.00
2018-06-09T02:27:32.031Z,95116.00
2018-06-09T02:30:03.456Z,95117.00
2018-06-09T02:32:34.491Z,95123.00
2018-06-09T02:35:05.961Z,95122.00
2018-06-09T02:37:37.149Z,95127.00
2018-06-09T02:40:08.173Z,95121.00
2018-06-09T02:42:39.269Z,95121.00
2018-06-09T02:45:10.492Z,95123.00
2018-06-09T02:47:41.695Z,95123.00
2018-06-09T02:50:12.891Z,95124.00
2018-06-09T02:52:43.976Z,95122.00
2018-06-09T02:55:33.852Z,95125.00
2018-06-09T02:58:04.937Z,95123.00
2018-06-09T03:00:36.451Z,95126.00
2018-06-09T03:03:07.520Z,95120.00
2018-06-09T03:05:38.660Z,95122.00
2018-06-09T03:08:13.138Z,95121.00
2018-06-09T03:10:44.244Z,95125.00
2018-06-09T03:13:15.451Z,95122.00
2018-06-09T03:15:47.333Z,95117.00
2018-06-09T03:18:18.455Z,95114.00
2018-06-09T03:20:55.373Z,95120.00
2018-06-09T03:23:26.504Z,95122.00
2018-06-09T03:25:57.490Z,95127.00
2018-06-09T03:28:28.992Z,95130.00
2018-06-09T03:31:00.414Z,95122.00
2018-06-09T03:33:31.553Z,95125.00
2018-06-09T03:36:02.906Z,95119.00
2018-06-09T03:38:34.051Z,95122.00
2018-06-09T03:41:13.689Z,95117.00
2018-06-09T03:43:44.482Z,95117.00
2018-06-09T03:46:15.487Z,95121.00
2018-06-09T03:48:47.065Z,95122.00
2018-06-09T03:51:18.291Z,95120.00
2018-06-09T03:53:49.568Z,95116.00
2018-06-09T03:56:21.053Z,95126.00
2018-06-09T03:58:52.320Z,95129.00
2018-06-09T04:01:24.113Z,95132.00
2018-06-09T04:03:55.360Z,95135.00
2018-06-09T04:06:27.572Z,95141.00
2018-06-09T04:08:58.636Z,95143.00
2018-06-09T04:11:35.860Z,95154.00
2018-06-09T04:14:06.996Z,95152.00
2018-06-09T04:16:38.712Z,95155.00
2018-06-09T04:19:10.064Z,95158.00
2018-06-09T04:21:41.190Z,95161.00
2018-06-09T04:24:12.387Z,95159.00
2018-06-09T04:26:43.937Z,95154.00
2018-06-09T04:29:15.184Z,95150.00
2018-06-09T04:31:46.307Z,95147.00
2018-06-09T04:34:17.530Z,95150.00
2018-06-09T04:36:48.889Z,95153.00
2018-06-09T04:39:19.951Z,95153.00
2018-06-09T04:41:51.367Z,95145.00
2018-06-09T04:44:22.628Z,95148.00
2018-06-09T04:46:53.664Z,95149.00
2018-06-09T04:49:24.691Z,95148.00
2018-06-09T04:51:56.446Z,95150.00
2018-06-09T04:54:27.615Z,95151.00
2018-06-09T04:56:58.888Z,95149.00
2018-06-09T04:59:36.948Z,95146.00
2018-06-09T05:02:08.841Z,95146.00
2018-06-09T05:04:40.060Z,95145.00
2018-06-09T05:07:11.291Z,95157.00
2018-06-09T05:09:42.231Z,95151.00
2018-06-09T05:12:13.050Z,95154.00
2018-06-09T05:14:43.928Z,95162.00
2018-06-09T05:17:14.749Z,95166.00
2018-06-09T05:19:45.550Z,95163.00
2018-06-09T05:22:16.652Z,95160.00
2018-06-09T05:24:47.525Z,95170.00
2018-06-09T05:27:18.976Z,95174.00
2018-06-09T05:29:49.961Z,95176.00
2018-06-09T05:32:21.135Z,95179.00
2018-06-09T05:34:52.238Z,95179.00
2018-06-09T05:37:23.456Z,95176.00
2018-06-09T05:39:54.524Z,95179.00
2018-06-09T05:42:26.395Z,95180.00
2018-06-09T05:44:58.093Z,95179.00
2018-06-09T05:47:35.408Z,95182.00
2018-06-09T05:50:06.518Z,95177.00
2018-06-09T05:52:37.791Z,95173.00
2018-06-09T05:55:08.924Z,95175.00
2018-06-09T05:57:40.345Z,95172.00
2018-06-09T06:00:11.418Z,95178.00
2018-06-09T06:02:42.554Z,95175.00
2018-06-09T06:05:13.772Z,95168.00
2018-06-09T06:07:45.113Z,95164.00
2018-06-09T06:10:16.501Z,95173.00
2018-06-09T06:12:47.632Z,95167.00
2018-06-09T06:15:19.242Z,95175.00
2018-06-09T06:17:50.383Z,95177.00
2018-06-09T06:20:21.559Z,95183.00
2018-06-09T06:22:53.112Z,95182.00
2018-06-09T06:25:42.679Z,95190.00
2018-06-09T06:28:13.832Z,95182.00
2018-06-09T06:30:45.220Z,95178.00
2018-06-09T06:36:12.407Z,95180.00
2018-06-09T06:38:43.715Z,95179.00
2018-06-09T06:41:14.959Z,95182.00
2018-06-09T06:43:46.307Z,95178.00
2018-06-09T06:46:17.548Z,95183.00
2018-06-09T06:48:49.090Z,95182.00
2018-06-09T06:51:20.343Z,95192.00
2018-06-09T06:53:51.298Z,95193.00
2018-06-09T06:56:23.848Z,95195.00
2018-06-09T06:58:55.182Z,95192.00
2018-06-09T07:01:26.252Z,95191.00
2018-06-09T07:04:02.845Z,95190.00
2018-06-09T07:06:33.935Z,95184.00
2018-06-09T07:09:06.761Z,95182.00
2018-06-09T07:11:37.995Z,95187.00
2018-06-09T07:14:09.405Z,95187.00
2018-06-09T07:16:40.600Z,95190.00
2018-06-09T07:19:14.413Z,95192.00
2018-06-09T07:21:45.612Z,95190.00
2018-06-09T07:24:16.728Z,95187.00
2018-06-09T07:26:51.190Z,95187.00
2018-06-09T07:29:22.215Z,95185.00
2018-06-09T07:31:53.377Z,95184.00
2018-06-09T07:34:29.716Z,95177.00
2018-06-09T07:37:01.023Z,95170.00
2018-06-09T07:39:32.095Z,95167.00
2018-06-09T07:42:03.196Z,95169.00
2018-06-09T07:44:34.729Z,95175.00
2018-06-09T07:47:05.690Z,95172.00
2018-06-09T07:49:37.017Z,95166.00
2018-06-09T07:52:08.096Z,95160.00
2018-06-09T07:54:39.320Z,95159.00
2018-06-09T07:57:11.168Z,95161.00
2018-06-09T07:59:42.941Z,95161.00
2018-06-09T08:02:14.079Z,95164.00
2018-06-09T08:04:53.116Z,95168.00
2018-06-09T08:07:23.903Z,95163.00
2018-06-09T08:09:54.888Z,95162.00
2018-06-09T08:12:25.992Z,95169.00
2018-06-09T08:14:57.133Z,95166.00
2018-06-09T08:17:27.955Z,95163.00
2018-06-09T08:19:59.190Z,95156.00
2018-06-09T08:22:30.752Z,95155.00
2018-06-09T08:25:02.129Z,95154.00
2018-06-09T08:30:09.677Z,95153.00
2018-06-09T08:32:40.903Z,95154.00
2018-06-09T08:35:11.796Z,95152.00
2018-06-09T08:37:42.925Z,95152.00
2018-06-09T08:40:14.175Z,95146.00
2018-06-09T08:42:45.247Z,95145.00
2018-06-09T08:45:16.549Z,95147.00
2018-06-09T08:47:47.653Z,95148.00
2018-06-09T08:50:18.848Z,95145.00
2018-06-09T08:52:50.152Z,95144.00
2018-06-09T08:55:21.848Z,95141.00
2018-06-09T08:57:53.127Z,95142.00
2018-06-09T09:00:24.399Z,95140.00
2018-06-09T09:02:55.488Z,95137.00
2018-06-09T09:05:26.567Z,95132.00
2018-06-09T09:07:57.371Z,95135.00
2018-06-09T09:10:28.816Z,95128.00
2018-06-09T09:13:00.038Z,95127.00
2018-06-09T09:15:31.978Z,95122.00
2018-06-09T09:18:03.137Z,95122.00
2018-06-09T09:20:34.371Z,95113.00
2018-06-09T09:23:06.470Z,95109.00
2018-06-09T09:25:38.095Z,95103.00
2018-06-09T09:28:09.574Z,95112.00
2018-06-09T09:30:41.228Z,95114.00
2018-06-09T09:33:12.387Z,95114.00
2018-06-09T09:35:43.615Z,95115.00
2018-06-09T09:38:14.664Z,95113.00
2018-06-09T09:40:46.129Z,95108.00
2018-06-09T09:43:17.268Z,95108.00
2018-06-09T09:45:48.599Z,95107.00
2018-06-09T09:48:19.856Z,95102.00
2018-06-09T09:50:50.985Z,95106.00
2018-06-09T09:53:22.014Z,95105.00
2018-06-09T09:55:54.069Z,95108.00
2018-06-09T09:58:25.205Z,95108.00
2018-06-09T10:00:56.409Z,95111.00
2018-06-09T10:03:27.609Z,95112.00
2018-06-09T10:05:58.643Z,95109.00
2018-06-09T10:08:35.660Z,95111.00
2018-06-09T10:11:06.751Z,95106.00
2018-06-09T10:13:37.960Z,95102.00
2018-06-09T10:16:09.467Z,95104.00
2018-06-09T10:18:40.636Z,95099.00
2018-06-09T10:21:33.953Z,95106.00
2018-06-09T10:24:05.029Z,95099.00
2018-06-09T10:26:36.452Z,95096.00
2018-06-09T10:29:07.616Z,95097.00
2018-06-09T10:31:39.006Z,95092.00
2018-06-09T10:34:10.347Z,95094.00
2018-06-09T10:36:41.368Z,95096.00
2018-06-09T10:39:12.533Z,95087.00
2018-06-09T10:41:43.914Z,95088.00
2018-06-09T10:44:15.009Z,95090.00
2018-06-09T10:46:46.152Z,95089.00
2018-06-09T10:49:17.395Z,95088.00
2018-06-09T10:51:48.799Z,95091.00
2018-06-09T10:54:19.966Z,95087.00
2018-06-09T10:56:51.024Z,95080.00
2018-06-09T10:59:22.201Z,95074.00
2018-06-09T11:01:53.745Z,95072.00
2018-06-09T11:04:24.867Z,95073.00
2018-06-09T11:06:55.859Z,95079.00
2018-06-09T11:09:26.772Z,95080.00
2018-06-09T11:11:57.648Z,95082.00
2018-06-09T11:14:28.460Z,95079.00
2018-06-09T11:16:59.280Z,95081.00
2018-06-09T11:19:30.144Z,95083.00
2018-06-09T11:22:05.069Z,95080.00
2018-06-09T11:24:37.477Z,95113.00
2018-06-09T11:27:08.977Z,95111.00
2018-06-09T11:29:40.065Z,95118.00
2018-06-09T11:32:11.616Z,95125.00
2018-06-09T11:34:42.891Z,95152.00
2018-06-09T11:37:14.004Z,95124.00
2018-06-09T11:39:45.101Z,95142.00
2018-06-09T11:42:16.394Z,95155.00
2018-06-09T11:44:47.441Z,95155.00
2018-06-09T11:47:18.661Z,95158.00
2018-06-09T11:49:49.853Z,95170.00
2018-06-09T11:52:20.992Z,95187.00
2018-06-09T11:54:52.175Z,95210.00
2018-06-09T11:57:24.061Z,95231.00
2018-06-09T11:59:55.295Z,95246.00
2018-06-09T12:02:30.682Z,95242.00
2018-06-09T12:05:01.491Z,95231.00
2018-06-09T12:07:32.371Z,95232.00
2018-06-09T12:10:03.561Z,95235.00
2018-06-09T12:12:35.459Z,95227.00
2018-06-09T12:15:06.447Z,95211.00
2018-06-09T12:17:37.887Z,95204.00
2018-06-09T12:20:08.754Z,95200.00
2018-06-09T12:22:40.600Z,95181.00
2018-06-09T12:25:11.413Z,95171.00
2018-06-09T12:27:42.557Z,95166.00
2018-06-09T12:30:13.994Z,95165.00
2018-06-09T12:32:45.225Z,95164.00
2018-06-09T12:35:16.544Z,95169.00
2018-06-09T12:37:47.670Z,95170.00
2018-06-09T12:40:18.903Z,95167.00
2018-06-09T12:42:53.999Z,95169.00
2018-06-09T12:45:25.327Z,95162.00
2018-06-09T12:47:56.140Z,95170.00
2018-06-09T12:50:27.330Z,95177.00
2018-06-09T12:53:10.861Z,95186.00
2018-06-09T12:55:42.001Z,95177.00
2018-06-09T12:58:13.041Z,95172.00
2018-06-09T13:00:44.176Z,95170.00
2018-06-09T13:03:15.065Z,95169.00
2018-06-09T13:05:45.906Z,95172.00
2018-06-09T13:08:16.752Z,95166.00
2018-06-09T13:10:47.556Z,95160.00
2018-06-09T13:13:22.432Z,95153.00
2018-06-09T13:15:53.627Z,95154.00
2018-06-09T13:18:25.204Z,95160.00
2018-06-09T13:23:54.884Z,95164.00
2018-06-09T13:26:25.920Z,95169.00
2018-06-09T13:28:57.052Z,95172.00
2018-06-09T13:31:27.904Z,95177.00
2018-06-09T13:33:59.151Z,95181.00
2018-06-09T13:36:30.144Z,95181.00
2018-06-09T13:39:01.048Z,95179.00
2018-06-09T13:41:32.296Z,95179.00
2018-06-09T13:44:03.276Z,95176.00
2018-06-09T13:46:34.413Z,95181.00
2018-06-09T13:49:05.748Z,95181.00
2018-06-09T13:51:49.151Z,95177.00
2018-06-09T13:54:20.424Z,95170.00
2018-06-09T13:56:51.657Z,95169.00
2018-06-09T13:59:22.846Z,95173.00
2018-06-09T14:01:57.424Z,95166.00
2018-06-09T14:04:28.372Z,95160.00
2018-06-09T14:06:59.447Z,95160.00
2018-06-09T14:09:30.566Z,95164.00
2018-06-09T14:12:01.680Z,95164.00
2018-06-09T14:14:32.884Z,95159.00
2018-06-09T14:17:04.204Z,95159.00
2018-06-09T14:19:35.272Z,95155.00
2018-06-09T14:22:06.514Z,95152.00
2018-06-09T14:24:37.349Z,95142.00
2018-06-09T14:27:08.528Z,95135.00
2018-06-09T14:29:39.999Z,95131.00
2018-06-09T14:32:11.055Z,95125.00
2018-06-09T14:34:56.011Z,95122.00
2018-06-09T14:37:27.257Z,95113.00
2018-06-09T14:39:58.089Z,95110.00
2018-06-09T14:42:29.217Z,95109.00
2018-06-09T14:45:00.205Z,95106.00
2018-06-09T14:47:31.058Z,95107.00
2018-06-09T14:50:02.209Z,95105.00
2018-06-09T14:52:33.072Z,95114.00
2018-06-09T14:55:04.282Z,95112.00
2018-06-09T14:57:35.515Z,95106.00
2018-06-09T15:00:06.913Z,95098.00
2018-06-09T15:03:00.599Z,95099.00
2018-06-09T15:05:31.989Z,95093.00
2018-06-09T15:08:03.506Z,95089.00
2018-06-09T15:10:35.356Z,95085.00
2018-06-09T15:13:06.443Z,95083.00
2018-06-09T15:15:37.950Z,95088.00
2018-06-09T15:18:09.057Z,95081.00
2018-06-09T15:20:40.200Z,95081.00
2018-06-09T15:23:11.015Z,95093.00
2018-06-09T15:25:41.841Z,95083.00
2018-06-09T15:28:13.042Z,95093.00
2018-06-09T15:30:44.234Z,95093.00
2018-06-09T15:33:15.227Z,95091.00
2018-06-09T15:35:57.456Z,95098.00
2018-06-09T15:38:29.629Z,95102.00
2018-06-09T15:41:00.778Z,95099.00
2018-06-09T15:43:37.069Z,95098.00
2018-06-09T15:46:07.952Z,95095.00
2018-06-09T15:48:38.761Z,95098.00
2018-06-09T15:51:10.172Z,95094.00
2018-06-09T15:53:41.007Z,95087.00
2018-06-09T15:56:12.145Z,95086.00
2018-06-09T15:58:43.002Z,95085.00
2018-06-09T16:01:14.513Z,95088.00
2018-06-09T16:03:45.632Z,95084.00
2018-06-09T16:06:16.465Z,95085.00
2018-06-09T16:08:47.304Z,95090.00
2018-06-09T16:11:18.173Z,95094.00
2018-06-09T16:13:48.997Z,95096.00
2018-06-09T16:16:20.015Z,95103.00
2018-06-09T16:18:51.235Z,95103.00
2018-06-09T16:21:22.247Z,95110.00
2018-06-09T16:24:00.633Z,95108.00
2018-06-09T16:26:32.050Z,95109.00
2018-06-09T16:29:03.274Z,95117.00
2018-06-09T16:31:34.448Z,95115.00
2018-06-09T16:34:05.753Z,95119.00
2018-06-09T16:36:40.339Z,95121.00
2018-06-09T16:39:14.602Z,95124.00
2018-06-09T16:41:46.289Z,95129.00
2018-06-09T16:44:17.516Z,95129.00
2018-06-09T16:46:48.477Z,95126.00
2018-06-09T22:46:22.393Z,95193.00
2018-06-09T22:48:53.592Z,95196.00
2018-06-09T22:51:24.957Z,95186.00
2018-06-09T22:53:56.497Z,95190.00
2018-06-09T22:56:27.648Z,95196.00
2018-06-09T22:58:58.882Z,95184.00
2018-06-09T23:01:29.974Z,95179.00
2018-06-09T23:04:01.687Z,95180.00
2018-06-09T23:09:30.852Z,95179.00
2018-06-09T23:12:01.963Z,95169.00
2018-06-09T23:14:42.798Z,95167.00
2018-06-09T23:17:13.900Z,95161.00
2018-06-09T23:19:45.030Z,95165.00
2018-06-09T23:22:15.914Z,95156.00
2018-06-09T23:24:46.816Z,95154.00
2018-06-09T23:27:17.677Z,95155.00
2018-06-09T23:29:48.705Z,95144.00
2018-06-09T23:32:19.531Z,95137.00
2018-06-09T23:34:51.011Z,95136.00
2018-06-09T23:37:21.828Z,95139.00
2018-06-09T23:39:53.085Z,95142.00
2018-06-09T23:42:24.285Z,95144.00
2018-06-09T23:44:55.940Z,95142.00
2018-06-09T23:47:27.223Z,95140.00
2018-06-09T23:49:58.914Z,95137.00
2018-06-09T23:52:30.017Z,95141.00
2018-06-09T23:55:01.139Z,95139.00
2018-06-09T23:57:32.257Z,95147.00
